Time;durP1;ratioP1;P1;durP2;ratioP2;P2;SDS_P1;SDS_P2;PMS_P1;PMS_P2;Temp;Humidity;BMP_temperature;BMP_pressure;BME280_temperature;BME280_humidity;BME280_pressure;Samples;Min_cycle;Max_cycle;Signal;HPM_P1;HPM_P2
2023/04/13 09:33:10;;;;;;;22.15;20.75;;;;;;;15.25;100.00;100366.81;6291465;22;20022;-91
2023/04/13 09:35:37;;;;;;;22.60;21.17;;;;;;;15.17;100.00;100368.06;6273591;22;20426;-92
2023/04/13 09:38:05;;;;;;;22.08;20.67;;;;;;;15.27;100.00;100376.22;6273059;22;20077;-91
2023/04/13 09:40:32;;;;;;;22.52;20.92;;;;;;;16.33;100.00;100375.19;6272805;22;20026;-92
2023/04/13 09:43:00;;;;;;;22.27;20.88;;;;;;;15.21;100.00;100376.41;6273589;22;20023;-92
2023/04/13 09:45:34;;;;;;;23.30;21.52;;;;;;;15.66;100.00;100368.22;6273268;22;20072;-91
2023/04/13 09:48:02;;;;;;;22.70;21.10;;;;;;;16.75;100.00;100371.03;6272412;22;20016;-91
2023/04/13 09:50:32;;;;;;;22.63;21.02;;;;;;;15.24;100.00;100368.69;6274182;22;20462;-92
2023/04/13 09:53:00;;;;;;;23.23;21.73;;;;;;;16.03;100.00;100368.41;6273617;22;20556;-91
2023/04/13 09:55:27;;;;;;;20.50;19.15;;;;;;;15.87;100.00;100368.50;6273044;22;20015;-92
2023/04/13 09:57:54;;;;;;;26.00;20.85;;;;;;;17.34;100.00;100360.25;6272917;22;20047;-92
2023/04/13 10:00:22;;;;;;;21.60;20.00;;;;;;;17.06;100.00;100353.31;6273271;22;20058;-93
2023/04/13 10:02:50;;;;;;;23.17;21.67;;;;;;;16.90;100.00;100355.09;6272269;22;20081;-93
2023/04/13 10:05:17;;;;;;;23.70;22.10;;;;;;;17.03;100.00;100349.28;6273215;22;20037;-92
2023/04/13 10:07:47;;;;;;;23.80;22.10;;;;;;;16.75;100.00;100358.44;6272715;22;20385;-92
2023/04/13 10:10:14;;;;;;;22.77;21.00;;;;;;;16.21;95.74;100347.72;6273110;22;20023;-91
2023/04/13 10:12:46;;;;;;;23.30;21.80;;;;;;;16.88;96.12;100336.59;6273461;22;20019;-91
2023/04/13 10:15:27;;;;;;;21.17;19.77;;;;;;;17.62;83.18;100341.06;6273282;22;20026;-92
2023/04/13 10:18:06;;;;;;;22.88;21.17;;;;;;;18.05;80.30;100336.41;6272784;22;20031;-91
2023/04/13 10:20:35;;;;;;;22.92;21.42;;;;;;;16.81;100.00;100341.34;6273162;22;20057;-91
2023/04/13 10:23:05;;;;;;;23.40;21.80;;;;;;;18.63;96.84;100336.22;6273088;22;20081;-92
2023/04/13 10:25:32;;;;;;;22.85;21.35;;;;;;;18.80;84.69;100330.63;6272994;22;20023;-93
2023/04/13 10:28:00;;;;;;;21.80;20.30;;;;;;;16.69;100.00;100329.94;6272815;22;20085;-92
2023/04/13 10:30:27;;;;;;;22.25;20.75;;;;;;;17.14;100.00;100326.81;6273672;22;20016;-92
2023/04/13 10:33:05;;;;;;;22.00;20.50;;;;;;;16.16;100.00;100328.94;6272836;22;20027;-92
2023/04/13 10:35:36;;;;;;;21.85;20.15;;;;;;;17.16;100.00;100326.59;6273708;22;20019;-91
2023/04/13 10:38:04;;;;;;;23.38;21.58;;;;;;;18.61;71.93;100318.75;6273497;22;20019;-92
2023/04/13 10:40:44;;;;;;;22.60;21.00;;;;;;;19.30;86.37;100320.03;6272976;22;20019;-92
2023/04/13 10:43:11;;;;;;;20.92;19.45;;;;;;;20.07;62.01;100325.97;6273286;22;20024;-93
2023/04/13 10:45:38;;;;;;;22.15;20.75;;;;;;;20.56;75.29;100322.41;6274907;22;20030;-93
2023/04/13 10:48:06;;;;;;;21.20;19.70;;;;;;;17.80;80.57;100331.75;6274619;22;20077;-93
2023/04/13 10:50:33;;;;;;;20.42;18.95;;;;;;;18.29;82.16;100327.84;6275167;22;20035;-92
2023/04/13 10:53:03;;;;;;;22.77;20.98;;;;;;;17.16;76.88;100334.63;6274953;22;20027;-93
2023/04/13 10:55:32;;;;;;;21.52;19.92;;;;;;;17.40;81.83;100335.06;6274574;22;20020;-91
2023/04/13 10:58:00;;;;;;;22.30;20.70;;;;;;;17.39;76.20;100334.22;6275296;22;20020;-92
2023/04/13 11:00:31;;;;;;;21.10;19.60;;;;;;;18.45;67.66;100321.41;6275363;22;20098;-91
2023/04/13 11:03:01;;;;;;;22.08;20.38;;;;;;;19.04;71.99;100313.91;6275389;22;20022;-92
2023/04/13 11:05:28;;;;;;;22.40;20.70;;;;;;;19.32;55.16;100313.31;6275063;22;20023;-93
2023/04/13 11:07:55;;;;;;;22.85;21.30;;;;;;;20.20;61.78;100311.06;6274831;22;20019;-93
2023/04/13 11:10:26;;;;;;;22.70;21.20;;;;;;;18.80;70.78;100311.78;6274746;22;20102;-91
2023/04/13 11:12:56;;;;;;;22.25;20.55;;;;;;;19.81;55.66;100318.00;6275278;22;20016;-91
2023/04/13 11:15:25;;;;;;;22.65;20.70;;;;;;;19.44;55.27;100308.41;6274340;22;20089;-92
2023/04/13 11:17:53;;;;;;;20.63;19.05;;;;;;;19.11;55.19;100312.53;6274953;22;20016;-92
2023/04/13 11:20:30;;;;;;;21.25;19.45;;;;;;;18.28;76.53;100319.00;6274985;22;20118;-93
2023/04/13 11:22:57;;;;;;;23.13;21.33;;;;;;;19.92;56.94;100310.69;6275441;22;20019;-91
2023/04/13 11:25:24;;;;;;;24.27;22.52;;;;;;;17.46;78.61;100304.47;6275205;22;20047;-93
2023/04/13 11:27:57;;;;;;;23.75;22.05;;;;;;;16.33;85.40;100313.56;6274512;22;20023;-92
2023/04/13 11:30:24;;;;;;;22.10;20.40;;;;;;;16.56;93.51;100308.94;6274509;22;20020;-94
2023/04/13 11:32:52;;;;;;;21.52;19.73;;;;;;;18.69;74.92;100302.06;6274645;22;20016;-92
2023/04/13 11:35:20;;;;;;;24.58;22.58;;;;;;;19.54;55.44;100304.88;6274093;22;20022;-93
2023/04/13 11:37:49;;;;;;;24.90;22.85;;;;;;;19.98;55.65;100300.69;6274439;22;20020;-92
2023/04/13 11:40:20;;;;;;;24.00;22.23;;;;;;;20.50;48.35;100297.34;6274531;22;20032;-92
2023/04/13 11:42:49;;;;;;;25.08;22.98;;;;;;;19.90;50.04;100296.66;6274205;22;20029;-92
2023/04/13 11:45:17;;;;;;;25.25;23.27;;;;;;;20.48;51.89;100288.72;6275100;22;20020;-94
2023/04/13 11:47:45;;;;;;;24.55;22.70;;;;;;;20.56;56.05;100288.16;6274474;22;20027;-93
2023/04/13 11:50:15;;;;;;;24.33;22.35;;;;;;;21.25;56.63;100288.03;6274603;22;20098;-92
2023/04/13 11:52:43;;;;;;;24.13;22.23;;;;;;;20.16;47.85;100289.25;6274181;22;20024;-92
2023/04/13 11:55:10;;;;;;;26.00;23.77;;;;;;;19.84;52.01;100287.00;6274366;22;20023;-91
2023/04/13 11:57:39;;;;;;;26.00;23.80;;;;;;;21.30;51.54;100290.66;6274071;22;20023;-92
2023/04/13 12:00:16;;;;;;;23.23;21.42;;;;;;;20.16;55.97;100274.97;6274611;22;20449;-92
2023/04/13 12:02:45;;;;;;;21.95;20.35;;;;;;;20.05;71.67;100287.69;6273830;22;20020;-94
2023/04/13 12:05:24;;;;;;;22.02;20.38;;;;;;;18.83;74.03;100286.22;6274521;22;20023;-91
2023/04/13 12:07:52;;;;;;;24.33;22.40;;;;;;;17.98;71.01;100282.13;6274939;22;20541;-92
2023/04/13 12:10:23;;;;;;;21.88;20.27;;;;;;;19.38;71.29;100282.59;6274040;22;20015;-92
2023/04/13 12:12:57;;;;;;;21.90;20.15;;;;;;;21.30;51.31;100273.66;6273792;22;20039;-93
2023/04/13 12:15:26;;;;;;;21.25;19.77;;;;;;;19.33;62.22;100274.53;6272419;22;20027;-92
2023/04/13 12:17:58;;;;;;;21.42;19.73;;;;;;;17.58;50.68;100277.41;6273821;22;20020;-92
2023/04/13 12:20:26;;;;;;;22.73;21.20;;;;;;;19.79;53.33;100279.75;6273918;22;20484;-92
2023/04/13 12:22:52;;;;;;;21.55;20.05;;;;;;;19.63;55.22;100278.19;6273957;22;20436;-93
2023/04/13 12:25:21;;;;;;;21.38;19.98;;;;;;;20.12;52.34;100272.00;6274195;22;20019;-91
2023/04/13 12:27:52;;;;;;;21.73;20.10;;;;;;;20.32;48.47;100266.47;6273368;22;20089;-90
2023/04/13 12:30:20;;;;;;;21.55;19.95;;;;;;;20.24;50.33;100260.84;6273225;22;20034;-93
2023/04/13 12:32:48;;;;;;;21.77;20.23;;;;;;;20.47;48.75;100249.34;6272862;22;20280;-92
2023/04/13 12:35:18;;;;;;;23.90;22.33;;;;;;;20.01;56.42;100262.38;6273824;22;20025;-92
2023/04/13 12:37:46;;;;;;;25.00;23.20;;;;;;;18.53;58.43;100261.72;6273855;22;20039;-92
2023/04/13 12:40:14;;;;;;;25.15;23.17;;;;;;;18.73;56.04;100246.72;6273994;22;20041;-92
2023/04/13 12:42:42;;;;;;;22.83;21.13;;;;;;;19.40;56.31;100244.63;6273258;22;20058;-93
2023/04/13 12:45:10;;;;;;;23.20;21.48;;;;;;;20.23;53.01;100243.88;6273820;22;20042;-93
2023/04/13 12:47:37;;;;;;;22.25;20.65;;;;;;;22.08;49.33;100248.03;6272961;22;20027;-93
2023/04/13 12:50:07;;;;;;;23.13;21.63;;;;;;;21.50;43.23;100241.81;6273741;22;20020;-94
2023/04/13 12:52:37;;;;;;;23.10;21.30;;;;;;;20.75;44.03;100238.88;6274113;22;20537;-93
2023/04/13 12:55:04;;;;;;;22.70;21.20;;;;;;;21.02;44.25;100243.72;6274353;22;20024;-91
2023/04/13 12:57:31;;;;;;;25.05;23.38;;;;;;;21.01;41.51;100236.72;6273463;22;20015;-92
2023/04/13 12:59:58;;;;;;;23.70;22.00;;;;;;;20.52;40.21;100222.38;6273777;22;20031;-91
2023/04/13 13:02:26;;;;;;;23.58;21.77;;;;;;;20.44;43.13;100231.03;6273375;22;20026;-92
2023/04/13 13:04:55;;;;;;;23.45;21.50;;;;;;;19.58;51.64;100233.22;6272906;22;20020;-93
2023/04/13 13:07:25;;;;;;;23.60;21.80;;;;;;;20.05;51.32;100226.50;6270644;22;20043;-92
2023/04/13 13:10:05;;;;;;;23.00;21.08;;;;;;;21.00;43.41;100222.44;6273391;22;20085;-93
2023/04/13 13:12:40;;;;;;;24.35;22.27;;;;;;;21.78;39.41;100228.47;6273177;22;20028;-93
2023/04/13 13:15:13;;;;;;;23.50;21.67;;;;;;;21.84;41.11;100219.19;6272865;22;20050;-92
2023/04/13 13:17:41;;;;;;;21.90;20.20;;;;;;;21.02;38.56;100230.22;6273503;22;20098;-91
2023/04/13 13:20:13;;;;;;;22.17;20.48;;;;;;;21.09;39.75;100224.47;6273153;22;20351;-91
2023/04/13 13:22:40;;;;;;;21.80;20.02;;;;;;;20.55;38.27;100229.09;6272619;22;20027;-92
2023/04/13 13:25:09;;;;;;;24.95;21.92;;;;;;;21.25;39.90;100232.13;6268458;22;20407;-95
2023/04/13 13:27:37;;;;;;;57.47;22.13;;;;;;;21.10;41.21;100221.50;6272476;22;20573;-92
2023/04/13 13:30:06;;;;;;;28.20;26.08;;;;;;;20.92;41.39;100227.66;6273856;22;20290;-92
2023/04/13 13:32:33;;;;;;;29.50;25.27;;;;;;;21.28;38.30;100222.63;6273327;22;20027;-92
2023/04/13 13:35:00;;;;;;;24.23;21.63;;;;;;;21.30;38.13;100222.34;6275499;22;20023;-92
2023/04/13 13:37:27;;;;;;;26.08;21.63;;;;;;;21.47;37.96;100222.69;6273277;22;20023;-91
2023/04/13 13:39:54;;;;;;;22.10;19.98;;;;;;;21.25;37.18;100215.13;6273016;22;20474;-92
2023/04/13 13:42:22;;;;;;;22.00;20.00;;;;;;;20.38;39.59;100212.50;6274840;22;20419;-92
2023/04/13 13:44:48;;;;;;;21.50;19.83;;;;;;;20.90;39.58;100217.13;6273906;22;20433;-92
2023/04/13 13:47:15;;;;;;;21.33;19.73;;;;;;;21.47;38.18;100214.59;6272514;22;20019;-93
2023/04/13 13:49:42;;;;;;;23.17;21.38;;;;;;;21.35;37.57;100211.47;6273986;22;20085;-92
2023/04/13 13:52:09;;;;;;;23.67;21.75;;;;;;;21.08;38.55;100210.19;6272712;22;20027;-92
2023/04/13 13:54:36;;;;;;;22.13;20.52;;;;;;;21.43;37.14;100208.16;6272658;22;20099;-92
2023/04/13 13:57:03;;;;;;;21.95;20.40;;;;;;;21.44;38.09;100193.56;6272462;22;20024;-93
2023/04/13 13:59:31;;;;;;;21.90;20.40;;;;;;;21.19;36.67;100205.47;6273449;22;20020;-91
2023/04/13 14:01:58;;;;;;;22.35;20.65;;;;;;;21.40;37.18;100197.94;6273272;22;20490;-91
2023/04/13 14:04:25;;;;;;;21.30;19.55;;;;;;;21.68;37.75;100194.28;6273344;22;20020;-91
2023/04/13 14:06:52;;;;;;;22.33;20.63;;;;;;;21.19;39.51;100195.47;6272119;22;20023;-92
2023/04/13 14:09:19;;;;;;;22.85;21.05;;;;;;;19.85;40.94;100197.00;6270698;22;20082;-92
2023/04/13 14:11:45;;;;;;;22.83;21.00;;;;;;;20.66;42.79;100195.50;6269462;22;20474;-93
2023/04/13 14:14:12;;;;;;;22.48;20.98;;;;;;;19.23;47.03;100197.28;6271133;22;20027;-92
2023/04/13 14:16:40;;;;;;;23.00;21.40;;;;;;;18.48;57.21;100194.50;6271145;22;20015;-92
2023/04/13 14:19:07;;;;;;;25.83;23.90;;;;;;;17.16;74.73;100197.78;6270774;22;20089;-93
2023/04/13 14:21:35;;;;;;;23.00;21.27;;;;;;;18.60;52.13;100191.53;6271714;22;20332;-91
2023/04/13 14:24:02;;;;;;;22.00;20.15;;;;;;;19.86;45.00;100188.63;6271293;22;20055;-92
2023/04/13 14:26:29;;;;;;;22.45;20.75;;;;;;;21.04;40.74;100193.75;6270404;22;20020;-92
2023/04/13 14:28:58;;;;;;;22.75;20.95;;;;;;;20.49;38.89;100190.53;6270335;22;20437;-91
2023/04/13 14:34:29;;;;;;;22.00;20.40;;;;;;;21.28;38.30;100177.53;6226837;22;20310;-91
2023/04/13 14:40:15;;;;;;;23.63;21.92;;;;;;;21.07;37.35;100192.38;6270893;22;20081;-92
2023/04/13 14:43:01;;;;;;;22.13;20.58;;;;;;;20.93;37.29;100183.34;6273026;22;20348;-92
2023/04/13 14:45:51;;;;;;;21.40;19.80;;;;;;;21.10;39.07;100185.59;6273079;22;20027;-93
2023/04/13 14:48:45;;;;;;;22.08;20.50;;;;;;;20.73;39.43;100187.09;6272168;22;20020;-92
2023/04/13 14:54:28;;;;;;;23.10;21.40;;;;;;;20.56;39.01;100182.13;6270751;22;20046;-93
2023/04/13 14:57:16;;;;;;;22.75;21.05;;;;;;;20.30;41.90;100186.94;6272157;22;20099;-93
2023/04/13 15:06:02;;;;;;;;;;;;;;;;;;;;;
2023/04/13 15:08:38;;;;;;;30.80;28.20;;;;;;;19.52;47.22;100174.28;6272954;22;20016;-92
2023/04/13 15:11:30;;;;;;;22.98;21.08;;;;;;;19.67;45.23;100182.31;6272266;22;20102;-93
2023/04/13 15:14:15;;;;;;;23.90;21.80;;;;;;;19.18;47.82;100191.13;6260407;22;20030;-93
2023/04/13 15:17:08;;;;;;;24.35;22.35;;;;;;;19.22;45.33;100189.50;6271776;22;20266;-92
2023/04/13 15:22:21;;;;;;;25.63;23.38;;;;;;;19.30;43.76;100180.03;6238453;23;20082;-92
2023/04/13 15:24:49;;;;;;;22.65;20.75;;;;;;;19.49;43.57;100191.81;6239471;23;20028;-92
2023/04/13 15:27:16;;;;;;;23.27;21.17;;;;;;;19.70;42.20;100189.00;6239069;23;20016;-93
2023/04/13 15:29:43;;;;;;;20.90;19.20;;;;;;;19.86;40.13;100177.06;6238317;23;20155;-93
2023/04/13 15:32:10;;;;;;;22.35;20.38;;;;;;;17.65;66.53;100186.66;6239846;23;20032;-93
2023/04/13 15:34:37;;;;;;;20.88;19.17;;;;;;;19.35;43.07;100183.50;6239688;22;20081;-92
2023/04/13 15:37:04;;;;;;;22.88;20.98;;;;;;;19.63;43.31;100183.91;6240779;23;20070;-92
2023/04/13 15:39:30;;;;;;;22.40;20.50;;;;;;;18.89;50.54;100180.22;6240349;23;20020;-93
2023/04/13 15:41:59;;;;;;;24.05;21.98;;;;;;;18.19;57.07;100171.97;6239690;23;20034;-92
2023/04/13 15:44:26;;;;;;;21.48;19.58;;;;;;;17.79;63.23;100192.34;6242122;23;20383;-93
2023/04/13 15:46:52;;;;;;;22.15;20.25;;;;;;;19.14;50.86;100182.78;6241246;23;20452;-92
2023/04/13 15:49:19;;;;;;;24.10;21.80;;;;;;;18.98;52.29;100178.56;6241978;23;20028;-92
2023/04/13 15:51:46;;;;;;;45.67;41.75;;;;;;;18.53;51.27;100167.63;6244233;23;20475;-91
2023/04/13 15:54:13;;;;;;;26.10;23.90;;;;;;;18.72;57.61;100173.22;6244206;23;20454;-91
2023/04/13 15:56:40;;;;;;;22.77;20.98;;;;;;;18.51;47.93;100171.66;6243296;23;20467;-92
2023/04/13 15:59:08;;;;;;;29.88;27.20;;;;;;;18.52;54.80;100168.69;6243269;23;20016;-93
2023/04/13 16:01:44;;;;;;;34.47;31.80;;;;;;;18.60;58.01;100174.59;6243995;23;20072;-93
2023/04/13 16:04:11;;;;;;;37.03;33.90;;;;;;;18.44;57.50;100168.44;6243461;23;20024;-93
2023/04/13 16:06:38;;;;;;;42.25;38.67;;;;;;;18.37;53.91;100160.66;6243490;23;20099;-94
2023/04/13 16:09:05;;;;;;;32.53;29.90;;;;;;;18.16;66.33;100167.13;6243568;23;20024;-92
2023/04/13 16:11:32;;;;;;;24.00;22.10;;;;;;;17.96;83.77;100170.63;6241714;23;20024;-94
2023/04/13 16:14:05;;;;;;;25.00;23.00;;;;;;;17.60;100.00;100163.28;6242618;23;20031;-93
2023/04/13 16:16:42;;;;;;;28.75;26.35;;;;;;;17.18;100.00;100171.47;6242589;23;20078;-92
2023/04/13 16:19:10;;;;;;;26.88;24.25;;;;;;;16.63;100.00;100172.78;6243000;23;20031;-92
2023/04/13 16:21:37;;;;;;;38.40;25.40;;;;;;;16.05;100.00;100182.56;6243400;23;20028;-93
2023/04/13 16:24:05;;;;;;;34.35;27.23;;;;;;;15.77;100.00;100177.22;6242739;23;20509;-93
2023/04/13 16:26:32;;;;;;;29.75;25.08;;;;;;;15.65;100.00;100197.94;6241629;23;20024;-93
2023/04/13 16:29:00;;;;;;;23.17;21.00;;;;;;;15.45;100.00;100179.78;6240864;23;20020;-93
2023/04/13 16:31:26;;;;;;;26.63;24.17;;;;;;;15.12;100.00;100188.78;6241343;23;20027;-92
2023/04/13 16:33:55;;;;;;;27.98;25.58;;;;;;;14.88;100.00;100197.00;6242531;22;20035;-92
2023/04/13 16:36:22;;;;;;;23.27;21.25;;;;;;;14.79;100.00;100190.47;6242397;23;20028;-92
2023/04/13 16:38:50;;;;;;;23.05;21.05;;;;;;;14.56;100.00;100186.16;6242993;23;20047;-92
2023/04/13 16:41:16;;;;;;;23.63;21.60;;;;;;;14.40;100.00;100190.44;6243575;23;20039;-93
2023/04/13 16:43:43;;;;;;;23.58;21.50;;;;;;;14.32;100.00;100193.50;6242497;23;20016;-92
2023/04/13 16:46:12;;;;;;;24.27;22.38;;;;;;;14.15;100.00;100190.00;6242281;23;20107;-91
2023/04/13 16:48:39;;;;;;;22.17;20.48;;;;;;;13.86;100.00;100192.75;6243096;23;20060;-91
2023/04/13 16:51:08;;;;;;;23.02;21.08;;;;;;;13.67;100.00;100186.78;6242562;23;20020;-92
2023/04/13 16:53:34;;;;;;;22.42;20.52;;;;;;;13.61;100.00;100190.41;6242684;23;20097;-92
2023/04/13 16:56:01;;;;;;;21.95;19.90;;;;;;;13.30;100.00;100199.69;6242432;23;20021;-92
2023/04/13 16:58:28;;;;;;;21.58;19.48;;;;;;;13.31;100.00;100203.97;6242272;23;20020;-91
2023/04/13 17:00:55;;;;;;;22.63;20.77;;;;;;;13.06;100.00;100207.69;6243124;23;20020;-92
2023/04/13 17:03:22;;;;;;;23.10;20.75;;;;;;;12.76;100.00;100202.50;6242008;23;20043;-92
2023/04/13 17:05:48;;;;;;;23.80;21.80;;;;;;;12.74;100.00;100204.63;6242248;23;20024;-91
2023/04/13 17:08:17;;;;;;;22.20;20.35;;;;;;;12.54;100.00;100210.28;6242601;23;20016;-91
2023/04/13 17:11:06;;;;;;;22.83;20.77;;;;;;;12.36;100.00;100197.06;6242680;23;20027;-93
2023/04/13 17:19:47;;;;;;;41.92;33.70;;;;;;;12.19;100.00;100214.75;6241628;23;20020;-93
2023/04/13 17:25:30;;;;;;;38.78;33.00;;;;;;;11.61;100.00;100216.16;6241634;23;20028;-91
2023/04/13 17:28:16;;;;;;;48.42;40.25;;;;;;;11.30;100.00;100220.63;6242587;23;20016;-91
2023/04/13 17:31:23;;;;;;;56.33;41.45;;;;;;;11.30;100.00;100225.94;6241499;23;20549;-91
2023/04/13 17:37:21;;;;;;;39.78;35.90;;;;;;;11.46;100.00;100232.50;6240768;23;20024;-92
2023/04/13 17:40:19;;;;;;;53.03;45.70;;;;;;;11.44;100.00;100238.03;6238665;23;20078;-92
2023/04/13 17:46:15;;;;;;;48.45;43.13;;;;;;;11.18;100.00;100259.59;6241000;23;20028;-91
2023/04/13 17:48:50;;;;;;;50.72;45.50;;;;;;;10.94;100.00;100250.66;6243033;23;20032;-92
2023/04/13 17:51:37;;;;;;;49.13;44.13;;;;;;;11.12;100.00;100255.19;6241578;23;20422;-93
2023/04/13 17:54:25;;;;;;;51.42;45.88;;;;;;;10.83;100.00;100262.78;6242390;23;20370;-91
2023/04/13 17:57:17;;;;;;;61.58;54.95;;;;;;;10.50;100.00;100250.63;6242519;23;20410;-91
2023/04/13 18:00:10;;;;;;;64.43;57.88;;;;;;;10.47;100.00;100263.53;6242109;23;20032;-92
2023/04/13 18:05:43;;;;;;;61.90;55.67;;;;;;;10.66;100.00;100257.25;6240013;23;20059;-92
2023/04/13 18:11:35;;;;;;;61.95;56.13;;;;;;;9.80;100.00;100268.38;6241975;23;20024;-92
2023/04/13 18:14:19;;;;;;;65.50;59.25;;;;;;;10.01;100.00;100268.06;6242763;23;20087;-91
2023/04/13 18:17:00;;;;;;;63.03;57.22;;;;;;;9.85;100.00;100269.38;6242115;23;20020;-93
2023/04/13 18:20:00;;;;;;;61.83;55.55;;;;;;;9.68;100.00;100278.84;6242720;23;20080;-92
2023/04/13 18:23:06;;;;;;;71.03;63.70;;;;;;;9.57;100.00;100272.38;6242494;23;20028;-93
2023/04/13 18:25:48;;;;;;;67.40;60.55;;;;;;;9.58;100.00;100255.44;6242517;23;20020;-92
2023/04/13 18:28:43;;;;;;;64.90;57.95;;;;;;;9.51;100.00;100262.59;6242176;23;20082;-93
2023/04/13 18:31:45;;;;;;;79.05;70.90;;;;;;;9.46;100.00;100267.72;6234486;23;20081;-92
2023/04/13 18:35:00;;;;;;;74.28;66.50;;;;;;;9.27;100.00;100272.06;6242503;22;20475;-93
2023/04/13 18:37:51;;;;;;;66.15;57.80;;;;;;;8.71;100.00;100270.72;6209486;23;20021;-92
2023/04/13 18:40:49;;;;;;;75.40;67.18;;;;;;;9.11;100.00;100278.63;6209623;23;20032;-91
2023/04/13 18:43:39;;;;;;;69.10;61.72;;;;;;;9.06;100.00;100272.31;6120262;23;20022;-92
2023/04/13 18:46:26;;;;;;;67.40;60.47;;;;;;;9.20;100.00;100283.69;6129925;23;20569;-92
2023/04/13 18:49:22;;;;;;;76.97;68.85;;;;;;;9.23;100.00;100283.25;6232561;23;20020;-92
2023/04/13 19:00:08;;;;;;;;;;;;;;;;;;;;;
2023/04/13 19:40:49;;;;;;;58.67;52.42;;;;;;;8.43;100.00;100307.94;5842032;24;20073;-92
2023/04/13 19:46:42;;;;;;;68.95;61.15;;;;;;;8.26;100.00;100301.41;5879665;24;20071;-93
2023/04/13 19:58:27;;;;;;;74.25;67.75;;;;;;;7.88;100.00;100288.66;6087292;23;20025;-92
2023/04/13 20:38:41;;;;;;;71.43;60.45;;;;;;;7.37;100.00;100275.03;6144705;23;20052;-91
2023/04/13 20:41:12;;;;;;;69.95;57.63;;;;;;;7.15;100.00;100272.47;6144449;23;20088;-91
2023/04/13 20:43:39;;;;;;;62.80;56.30;;;;;;;7.15;100.00;100284.88;6149789;23;20042;-91
2023/04/13 20:46:07;;;;;;;66.85;57.53;;;;;;;7.01;100.00;100289.25;6159605;23;20044;-91
2023/04/13 20:48:36;;;;;;;65.78;58.60;;;;;;;7.17;100.00;100282.84;6213087;23;20471;-91
2023/04/13 20:51:06;;;;;;;72.85;64.43;;;;;;;7.25;100.00;100280.03;6212021;23;20052;-90
2023/04/13 20:53:34;;;;;;;70.82;57.70;;;;;;;7.03;100.00;100281.94;6212532;23;20017;-91
2023/04/13 20:56:01;;;;;;;72.15;59.47;;;;;;;6.95;100.00;100285.53;6212710;23;20031;-90
2023/04/13 20:58:28;;;;;;;70.68;59.03;;;;;;;7.02;100.00;100283.78;6211808;23;20016;-90
2023/04/13 21:00:56;;;;;;;68.38;59.25;;;;;;;7.05;100.00;100287.84;6212618;23;20047;-90
2023/04/13 21:03:22;;;;;;;76.47;66.28;;;;;;;7.40;100.00;100279.94;6211695;23;20063;-91
2023/04/13 21:05:51;;;;;;;66.50;55.47;;;;;;;7.36;100.00;100278.69;6212244;23;20021;-90
2023/04/13 21:08:20;;;;;;;62.08;55.55;;;;;;;7.02;100.00;100280.31;6212135;23;20043;-91
2023/04/13 21:10:47;;;;;;;75.97;68.15;;;;;;;7.26;100.00;100276.38;6212495;23;20071;-90
2023/04/13 21:13:15;;;;;;;72.32;64.88;;;;;;;7.10;100.00;100269.59;6211723;23;20078;-90
2023/04/13 21:15:41;;;;;;;68.97;61.95;;;;;;;6.98;100.00;100273.78;6212285;23;20106;-91
2023/04/13 21:18:08;;;;;;;84.97;76.82;;;;;;;7.01;100.00;100274.22;6211985;23;20021;-90
2023/04/13 21:20:35;;;;;;;82.78;74.18;;;;;;;7.29;100.00;100266.28;6212535;23;20028;-90
2023/04/13 21:23:02;;;;;;;71.32;63.97;;;;;;;7.44;100.00;100263.47;6212361;23;20020;-91
2023/04/13 21:25:30;;;;;;;66.53;56.05;;;;;;;7.22;100.00;100269.88;6212890;23;20017;-90
2023/04/13 21:27:58;;;;;;;73.13;66.20;;;;;;;7.16;100.00;100268.81;6211607;23;20055;-91
2023/04/13 21:30:25;;;;;;;64.90;57.78;;;;;;;7.15;100.00;100269.84;6212803;23;20020;-91
2023/04/13 21:32:54;;;;;;;72.60;61.70;;;;;;;7.11;100.00;100265.97;6212656;23;20375;-89
2023/04/13 21:35:22;;;;;;;66.68;58.78;;;;;;;6.98;100.00;100268.50;6241685;22;20379;-90
2023/04/13 21:37:49;;;;;;;67.15;55.30;;;;;;;6.87;100.00;100256.66;6242950;23;20020;-90
2023/04/13 21:40:17;;;;;;;67.88;61.20;;;;;;;7.00;100.00;100267.31;6242350;23;20020;-90
2023/04/13 21:42:45;;;;;;;67.97;61.08;;;;;;;6.79;100.00;100264.72;6242702;22;20024;-91
2023/04/13 21:45:12;;;;;;;64.63;57.80;;;;;;;7.02;100.00;100264.47;6241960;22;20028;-91
2023/04/13 21:47:39;;;;;;;63.13;56.53;;;;;;;7.00;100.00;100266.50;6242881;23;20028;-91
2023/04/13 21:50:07;;;;;;;64.85;58.45;;;;;;;7.03;100.00;100261.63;6242721;22;20031;-90
2023/04/13 21:52:34;;;;;;;61.85;55.75;;;;;;;6.96;100.00;100270.50;6242493;23;20020;-90
2023/04/13 21:55:02;;;;;;;65.20;58.50;;;;;;;6.99;100.00;100259.56;6242432;23;20351;-90
2023/04/13 21:57:30;;;;;;;62.95;56.15;;;;;;;6.84;100.00;100259.69;6242535;22;20020;-90
2023/04/13 21:59:58;;;;;;;65.30;58.60;;;;;;;7.06;100.00;100255.16;6242937;23;20020;-90
2023/04/13 22:02:25;;;;;;;62.22;55.70;;;;;;;6.72;100.00;100243.56;6242329;23;20039;-91
2023/04/13 22:04:52;;;;;;;61.05;52.92;;;;;;;6.54;100.00;100254.59;6241950;23;20016;-91
2023/04/13 22:07:19;;;;;;;68.38;58.80;;;;;;;6.56;100.00;100259.66;6242253;23;20287;-90
2023/04/13 22:09:48;;;;;;;68.22;59.53;;;;;;;6.59;100.00;100265.38;6242774;23;20026;-90
2023/04/13 22:12:15;;;;;;;65.97;56.05;;;;;;;6.45;100.00;100257.56;6242323;22;20099;-90
2023/04/13 22:14:41;;;;;;;170.70;96.22;;;;;;;6.51;100.00;100259.44;6242551;23;20036;-91
2023/04/13 22:17:10;;;;;;;98.20;72.68;;;;;;;6.57;100.00;100261.31;6242607;23;20024;-90
2023/04/13 22:19:37;;;;;;;73.50;60.70;;;;;;;6.46;100.00;100257.34;6242039;22;20016;-91
2023/04/13 22:22:04;;;;;;;76.60;62.78;;;;;;;6.83;100.00;100252.75;6242313;23;20026;-90
2023/04/13 22:24:30;;;;;;;166.75;91.78;;;;;;;7.64;100.00;100249.53;6242106;23;20016;-90
2023/04/13 22:26:57;;;;;;;59.13;48.67;;;;;;;7.28;100.00;100248.78;6242674;23;20016;-90
2023/04/13 22:29:24;;;;;;;79.20;58.92;;;;;;;7.13;100.00;100249.91;6242816;23;20470;-89
2023/04/13 22:31:53;;;;;;;65.65;53.58;;;;;;;7.22;100.00;100249.56;6242626;23;20020;-90
2023/04/13 22:34:25;;;;;;;66.50;59.95;;;;;;;7.22;100.00;100246.09;6242273;23;20497;-91
2023/04/13 22:36:53;;;;;;;64.05;51.72;;;;;;;7.03;100.00;100237.06;6243189;23;20046;-92
2023/04/13 22:39:19;;;;;;;63.38;46.72;;;;;;;6.48;100.00;100236.88;6242064;23;20098;-91
2023/04/13 22:41:46;;;;;;;66.78;54.55;;;;;;;6.76;100.00;100247.44;6244737;23;20024;-90
2023/04/13 22:44:13;;;;;;;59.50;50.05;;;;;;;6.63;100.00;100237.59;6244162;22;20028;-90
2023/04/13 22:46:40;;;;;;;54.95;47.97;;;;;;;6.54;100.00;100246.69;6244560;23;20027;-90
2023/04/13 22:49:07;;;;;;;55.38;49.22;;;;;;;6.03;100.00;100240.72;6244815;22;20020;-90
2023/04/13 22:51:39;;;;;;;59.50;52.97;;;;;;;6.42;100.00;100238.47;6244515;23;20479;-91
2023/04/13 22:54:06;;;;;;;57.28;51.50;;;;;;;5.94;100.00;100245.31;6244225;23;20044;-90
2023/04/13 22:56:33;;;;;;;60.33;54.00;;;;;;;6.26;100.00;100238.69;6245088;23;20455;-91
2023/04/13 22:59:00;;;;;;;64.18;57.15;;;;;;;6.13;100.00;100242.03;6244026;23;20024;-90
2023/04/13 23:01:27;;;;;;;60.05;53.75;;;;;;;5.90;100.00;100238.72;6243676;22;20023;-91
2023/04/13 23:03:54;;;;;;;59.83;54.03;;;;;;;5.67;100.00;100250.25;6244362;23;20020;-89
2023/04/13 23:06:21;;;;;;;58.80;52.75;;;;;;;5.86;100.00;100248.81;6244582;23;20020;-90
2023/04/13 23:08:49;;;;;;;60.47;54.20;;;;;;;5.91;100.00;100230.63;6244973;23;20406;-90
2023/04/13 23:11:16;;;;;;;56.75;49.75;;;;;;;6.12;100.00;100240.41;6244280;23;20081;-91
2023/04/13 23:13:45;;;;;;;73.55;67.05;;;;;;;5.62;100.00;100234.16;6244432;23;20039;-91
2023/04/13 23:16:12;;;;;;;62.47;56.58;;;;;;;5.73;100.00;100238.97;6244453;23;20078;-90